createdAt,value
2018-05-11T00:00:03.042Z,16.50
2018-05-11T00:02:31.372Z,16.49
2018-05-11T00:04:59.703Z,16.38
2018-05-11T00:07:28.049Z,16.46
2018-05-11T00:09:57.167Z,16.45
2018-05-11T00:12:25.542Z,16.48
2018-05-11T00:14:53.894Z,16.50
2018-05-11T00:17:22.957Z,16.49
2018-05-11T00:19:52.069Z,16.43
2018-05-11T00:22:21.079Z,16.46
2018-05-11T00:24:49.396Z,16.64
2018-05-11T00:27:17.711Z,16.56
2018-05-11T00:29:46.054Z,16.54
2018-05-11T00:32:14.363Z,16.44
2018-05-11T00:34:42.663Z,16.45
2018-05-11T00:37:13.161Z,16.33
2018-05-11T00:39:42.248Z,16.40
2018-05-11T00:42:10.570Z,16.55
2018-05-11T00:44:39.980Z,16.43
2018-05-11T00:47:08.292Z,16.38
2018-05-11T00:49:36.608Z,16.36
2018-05-11T00:52:04.953Z,16.45
2018-05-11T00:54:33.281Z,16.40
2018-05-11T00:57:01.607Z,16.43
2018-05-11T00:59:29.947Z,16.56
2018-05-11T01:01:59.044Z,16.44
2018-05-11T01:04:27.386Z,16.52
2018-05-11T01:06:56.312Z,16.39
2018-05-11T01:09:24.717Z,16.28
2018-05-11T01:11:53.016Z,16.24
2018-05-11T01:14:22.126Z,16.35
2018-05-11T01:16:50.471Z,16.48
2018-05-11T01:19:19.529Z,16.62
2018-05-11T01:21:47.876Z,16.56
2018-05-11T01:24:16.194Z,16.56
2018-05-11T01:26:44.508Z,16.52
2018-05-11T01:29:13.131Z,16.53
2018-05-11T01:31:41.427Z,16.59
2018-05-11T01:34:09.732Z,16.85
2018-05-11T01:36:38.833Z,16.84
2018-05-11T01:39:08.113Z,16.66
2018-05-11T01:41:36.430Z,16.76
2018-05-11T01:44:04.772Z,16.77
2018-05-11T01:46:33.099Z,16.71
2018-05-11T01:49:01.399Z,16.62
2018-05-11T01:51:30.035Z,16.39
2018-05-11T01:53:58.368Z,16.57
2018-05-11T01:56:26.681Z,16.54
2018-05-11T01:58:55.779Z,16.51
2018-05-11T02:01:24.837Z,16.50
2018-05-11T02:03:53.127Z,16.48
2018-05-11T02:06:21.467Z,16.50
2018-05-11T02:08:49.832Z,16.64
2018-05-11T02:11:18.144Z,16.45
2018-05-11T02:13:46.570Z,16.62
2018-05-11T02:16:15.647Z,16.68
2018-05-11T02:18:44.004Z,16.23
2018-05-11T02:21:12.292Z,16.24
2018-05-11T02:23:40.588Z,16.18
2018-05-11T02:26:08.895Z,16.24
2018-05-11T02:28:37.212Z,16.26
2018-05-11T02:31:05.527Z,16.35
2018-05-11T02:33:33.833Z,16.21
2018-05-11T02:36:02.492Z,16.24
2018-05-11T02:38:30.832Z,16.33
2018-05-11T02:40:59.255Z,16.16
2018-05-11T02:43:28.340Z,16.21
2018-05-11T02:45:56.639Z,16.13
2018-05-11T02:48:24.998Z,16.31
2018-05-11T02:50:54.090Z,16.52
2018-05-11T02:53:22.403Z,16.58
2018-05-11T02:55:50.717Z,16.45
2018-05-11T02:58:19.167Z,16.43
2018-05-11T03:00:47.496Z,16.35
2018-05-11T03:03:15.807Z,16.37
2018-05-11T03:05:44.158Z,16.43
2018-05-11T03:08:12.463Z,16.45
2018-05-11T03:10:40.870Z,16.48
2018-05-11T03:13:09.193Z,16.49
2018-05-11T03:15:37.497Z,16.29
2018-05-11T03:18:06.568Z,16.17
2018-05-11T03:20:35.364Z,16.24
2018-05-11T03:23:03.680Z,16.38
2018-05-11T03:25:32.037Z,16.40
2018-05-11T03:28:01.155Z,16.40
2018-05-11T03:30:29.468Z,16.42
2018-05-11T03:32:57.802Z,16.44
2018-05-11T03:35:26.163Z,16.34
2018-05-11T03:37:55.266Z,16.32
2018-05-11T03:40:24.353Z,16.31
2018-05-11T03:42:53.559Z,16.36
2018-05-11T03:45:22.631Z,16.37
2018-05-11T03:47:50.943Z,16.43
2018-05-11T03:50:19.276Z,16.51
2018-05-11T03:52:47.592Z,16.44
2018-05-11T03:55:16.686Z,16.41
2018-05-11T03:57:45.812Z,16.42
2018-05-11T04:00:14.146Z,16.47
2018-05-11T04:03:01.175Z,16.09
2018-05-11T04:05:47.721Z,16.35
2018-05-11T04:08:34.707Z,16.26
2018-05-11T04:11:03.010Z,16.19
2018-05-11T04:13:31.340Z,16.06
2018-05-11T04:15:59.697Z,16.19
2018-05-11T04:18:28.020Z,16.14
2018-05-11T04:20:56.362Z,16.08
2018-05-11T04:23:24.967Z,16.05
2018-05-11T04:25:53.280Z,16.12
2018-05-11T04:28:21.624Z,16.08
2018-05-11T04:30:50.762Z,16.27
2018-05-11T04:33:19.064Z,16.11
2018-05-11T04:35:47.371Z,15.97
2018-05-11T04:38:15.724Z,16.19
2018-05-11T04:40:44.062Z,16.30
2018-05-11T04:43:12.383Z,16.34
2018-05-11T04:45:41.308Z,16.21
2018-05-11T04:48:09.647Z,16.41
2018-05-11T04:50:37.970Z,16.55
2018-05-11T04:53:07.079Z,16.51
2018-05-11T04:55:35.404Z,16.49
2018-05-11T04:58:03.734Z,16.38
2018-05-11T05:00:32.097Z,16.46
2018-05-11T05:03:01.181Z,16.55
2018-05-11T05:05:30.279Z,16.50
2018-05-11T05:07:58.731Z,16.54
2018-05-11T05:10:27.823Z,16.36
2018-05-11T05:12:56.191Z,16.49
2018-05-11T05:15:25.304Z,16.45
2018-05-11T05:17:53.623Z,16.54
2018-05-11T05:20:22.733Z,16.52
2018-05-11T05:22:51.088Z,16.59
2018-05-11T05:25:19.433Z,16.33
2018-05-11T05:27:47.755Z,16.34
2018-05-11T05:30:16.681Z,16.59
2018-05-11T05:32:45.005Z,16.65
2018-05-11T05:35:13.336Z,16.83
2018-05-11T05:37:41.690Z,16.71
2018-05-11T05:40:10.802Z,16.86
2018-05-11T05:42:39.132Z,17.16
2018-05-11T05:45:07.484Z,17.21
2018-05-11T05:47:35.809Z,17.39
2018-05-11T05:50:04.141Z,17.37
2018-05-11T05:52:32.707Z,17.57
2018-05-11T05:55:01.051Z,17.56
2018-05-11T05:57:30.149Z,17.64
2018-05-11T05:59:58.634Z,17.78
2018-05-11T06:02:27.667Z,18.11
2018-05-11T06:04:56.065Z,18.23
2018-05-11T06:07:24.475Z,18.40
2018-05-11T06:09:52.814Z,18.41
2018-05-11T06:12:21.281Z,18.31
2018-05-11T06:14:49.820Z,18.23
2018-05-11T06:17:18.147Z,18.55
2018-05-11T06:19:46.475Z,18.78
2018-05-11T06:22:14.843Z,18.68
2018-05-11T06:24:43.165Z,18.59
2018-05-11T06:27:11.502Z,18.75
2018-05-11T06:29:39.853Z,18.76
2018-05-11T06:32:08.192Z,19.06
2018-05-11T06:34:37.354Z,19.09
2018-05-11T06:37:05.690Z,19.16
2018-05-11T06:39:34.002Z,19.46
2018-05-11T06:42:02.328Z,19.54
2018-05-11T06:44:30.691Z,19.79
2018-05-11T06:46:59.784Z,19.98
2018-05-11T06:49:28.180Z,19.94
2018-05-11T06:51:57.275Z,20.01
2018-05-11T06:54:26.407Z,20.06
2018-05-11T06:56:54.743Z,20.17
2018-05-11T06:59:23.703Z,20.67
2018-05-11T07:01:52.040Z,20.49
2018-05-11T07:04:20.371Z,20.82
2018-05-11T07:06:48.719Z,20.91
2018-05-11T07:09:18.066Z,21.11
2018-05-11T07:11:46.365Z,21.13
2018-05-11T07:14:14.725Z,21.44
2018-05-11T07:16:43.208Z,21.72
2018-05-11T07:19:11.535Z,21.57
2018-05-11T07:21:40.930Z,21.68
2018-05-11T07:24:09.311Z,21.79
2018-05-11T07:26:37.642Z,22.01
2018-05-11T07:29:06.744Z,22.13
2018-05-11T07:31:35.893Z,21.90
2018-05-11T07:34:04.244Z,21.70
2018-05-11T07:36:32.628Z,21.58
2018-05-11T07:39:01.046Z,21.55
2018-05-11T07:41:29.384Z,21.63
2018-05-11T07:43:58.351Z,21.67
2018-05-11T07:46:26.674Z,21.71
2018-05-11T07:48:55.768Z,21.86
2018-05-11T07:51:24.136Z,21.91
2018-05-11T07:53:52.522Z,21.72
2018-05-11T07:56:20.861Z,21.24
2018-05-11T07:58:49.974Z,21.55
2018-05-11T08:01:19.080Z,21.59
2018-05-11T08:03:47.420Z,21.75
2018-05-11T08:06:15.934Z,21.99
2018-05-11T08:08:45.012Z,22.03
2018-05-11T08:11:13.334Z,22.31
2018-05-11T08:13:41.682Z,22.14
2018-05-11T08:16:10.023Z,22.29
2018-05-11T08:18:38.368Z,22.69
2018-05-11T08:21:06.724Z,22.87
2018-05-11T08:23:35.838Z,22.69
2018-05-11T08:26:04.161Z,22.90
2018-05-11T08:28:32.571Z,23.21
2018-05-11T08:31:01.645Z,23.25
2018-05-11T08:33:29.948Z,23.14
2018-05-11T08:35:59.122Z,23.58
2018-05-11T08:38:27.404Z,23.65
2018-05-11T08:40:55.789Z,23.78
2018-05-11T08:43:24.919Z,23.89
2018-05-11T08:45:53.272Z,24.00
2018-05-11T08:48:21.599Z,23.71
2018-05-11T08:50:50.219Z,23.50
2018-05-11T08:53:18.538Z,23.70
2018-05-11T08:55:46.960Z,24.05
2018-05-11T08:58:15.261Z,24.18
2018-05-11T09:00:43.603Z,24.36
2018-05-11T09:03:11.947Z,24.46
2018-05-11T09:05:40.297Z,24.73
2018-05-11T09:08:13.463Z,24.85
2018-05-11T09:10:42.367Z,24.86
2018-05-11T09:13:10.674Z,24.64
2018-05-11T09:15:38.995Z,24.66
2018-05-11T09:18:07.340Z,24.51
2018-05-11T09:20:36.423Z,24.30
2018-05-11T09:23:04.746Z,24.56
2018-05-11T09:25:33.091Z,24.74
2018-05-11T09:28:02.175Z,24.98
2018-05-11T09:30:31.279Z,25.32
2018-05-11T09:33:00.671Z,25.45
2018-05-11T09:35:29.072Z,25.36
2018-05-11T09:37:57.430Z,25.18
2018-05-11T09:40:26.552Z,25.42
2018-05-11T09:42:54.913Z,25.35
2018-05-11T09:45:23.248Z,25.11
2018-05-11T09:47:51.663Z,25.50
2018-05-11T09:50:20.009Z,25.75
2018-05-11T09:52:48.323Z,26.07
2018-05-11T09:55:17.124Z,26.17
2018-05-11T09:57:45.460Z,26.25
2018-05-11T10:00:13.815Z,26.29
2018-05-11T10:02:42.143Z,26.42
2018-05-11T10:05:10.483Z,26.49
2018-05-11T10:07:38.833Z,26.54
2018-05-11T10:10:07.950Z,26.90
2018-05-11T10:12:36.275Z,26.92
2018-05-11T10:15:04.617Z,26.67
2018-05-11T10:17:33.305Z,26.42
2018-05-11T10:20:01.630Z,26.29
2018-05-11T10:22:30.775Z,25.92
2018-05-11T10:24:59.135Z,25.94
2018-05-11T10:27:27.490Z,25.37
2018-05-11T10:29:56.575Z,25.71
2018-05-11T10:32:24.925Z,25.32
2018-05-11T10:34:53.291Z,24.92
2018-05-11T10:37:21.592Z,25.45
2018-05-11T10:39:50.166Z,26.24
2018-05-11T10:42:18.515Z,25.96
2018-05-11T10:44:46.873Z,26.43
2018-05-11T10:47:16.022Z,26.60
2018-05-11T10:49:44.498Z,26.94
2018-05-11T10:52:12.801Z,27.23
2018-05-11T10:54:41.147Z,27.42
2018-05-11T10:57:09.479Z,27.41
2018-05-11T10:59:38.592Z,27.03
2018-05-11T11:02:07.923Z,26.89
2018-05-11T11:04:36.267Z,26.89
2018-05-11T11:07:05.377Z,27.23
2018-05-11T11:09:33.779Z,27.29
2018-05-11T11:12:02.132Z,27.31
2018-05-11T11:14:30.476Z,27.29
2018-05-11T11:16:58.843Z,27.55
2018-05-11T11:19:27.198Z,27.50
2018-05-11T11:21:55.562Z,27.51
2018-05-11T11:24:24.286Z,27.74
2018-05-11T11:26:52.626Z,28.17
2018-05-11T11:29:20.966Z,28.59
2018-05-11T11:31:50.156Z,28.70
2018-05-11T11:34:19.284Z,28.42
2018-05-11T11:36:47.645Z,28.83
2018-05-11T11:39:15.968Z,28.93
2018-05-11T11:41:45.212Z,29.17
2018-05-11T11:44:13.492Z,29.18
2018-05-11T11:46:42.230Z,29.22
2018-05-11T11:49:10.651Z,29.69
2018-05-11T11:51:39.062Z,29.59
2018-05-11T11:54:08.189Z,29.15
2018-05-11T11:56:36.534Z,28.67
2018-05-11T11:59:05.624Z,28.29
2018-05-11T12:01:35.168Z,28.69
2018-05-11T12:04:03.472Z,28.67
2018-05-11T12:06:31.794Z,27.52
2018-05-11T12:09:01.161Z,27.34
2018-05-11T12:11:29.475Z,28.03
2018-05-11T12:13:57.815Z,28.92
2018-05-11T12:16:26.157Z,28.97
2018-05-11T12:18:54.475Z,28.92
2018-05-11T12:21:22.786Z,29.27
2018-05-11T12:23:51.884Z,29.15
2018-05-11T12:26:20.945Z,29.08
2018-05-11T12:28:49.288Z,28.95
2018-05-11T12:31:17.934Z,28.84
2018-05-11T12:33:47.023Z,28.93
2018-05-11T12:36:15.378Z,28.77
2018-05-11T12:38:43.739Z,28.68
2018-05-11T12:41:12.131Z,28.68
2018-05-11T12:43:40.486Z,28.21
2018-05-11T12:46:08.869Z,27.99
2018-05-11T12:48:37.225Z,28.32
2018-05-11T12:51:05.576Z,28.07
2018-05-11T12:53:34.213Z,27.76
2018-05-11T12:56:02.620Z,27.64
2018-05-11T12:58:30.967Z,27.49
2018-05-11T13:00:59.356Z,26.97
2018-05-11T13:03:27.724Z,26.67
2018-05-11T13:05:56.072Z,26.43
2018-05-11T13:08:25.195Z,26.93
2018-05-11T13:10:53.795Z,27.43
2018-05-11T13:13:22.195Z,27.34
2018-05-11T13:15:50.932Z,26.85
2018-05-11T13:18:19.285Z,26.90
2018-05-11T13:20:47.661Z,26.42
2018-05-11T13:23:16.037Z,26.08
2018-05-11T13:25:44.400Z,26.14
2018-05-11T13:28:12.744Z,25.90
2018-05-11T13:30:41.186Z,25.80
2018-05-11T13:33:09.464Z,25.57
2018-05-11T13:35:38.620Z,25.52
2018-05-11T13:38:07.278Z,25.76
2018-05-11T13:40:35.654Z,25.99
2018-05-11T13:43:04.019Z,26.33
2018-05-11T13:45:32.396Z,26.32
2018-05-11T13:48:01.515Z,26.45
2018-05-11T13:50:29.837Z,26.64
2018-05-11T13:52:58.172Z,27.10
2018-05-11T13:55:26.528Z,27.51
2018-05-11T13:57:55.643Z,27.57
2018-05-11T14:00:24.078Z,27.34
2018-05-11T14:02:53.352Z,27.40
2018-05-11T14:05:21.720Z,27.39
2018-05-11T14:07:50.074Z,27.49
2018-05-11T14:10:18.784Z,27.48
2018-05-11T14:12:47.050Z,27.60
2018-05-11T14:15:15.427Z,27.65
2018-05-11T14:17:43.844Z,27.83
2018-05-11T14:20:12.167Z,27.65
2018-05-11T14:22:41.543Z,27.36
2018-05-11T14:25:09.861Z,26.45
2018-05-11T14:27:38.944Z,26.60
2018-05-11T14:30:07.315Z,26.47
2018-05-11T14:32:36.421Z,26.36
2018-05-11T14:35:05.512Z,26.17
2018-05-11T14:37:34.651Z,26.12
2018-05-11T14:40:03.043Z,26.00
2018-05-11T14:42:31.380Z,25.95
2018-05-11T14:45:00.755Z,25.97
2018-05-11T14:47:29.129Z,25.65
2018-05-11T14:49:57.480Z,25.80
2018-05-11T14:52:25.883Z,25.66
2018-05-11T14:54:54.207Z,25.72
2018-05-11T14:57:22.585Z,25.79
2018-05-11T14:59:50.968Z,25.70
2018-05-11T15:02:19.298Z,25.79
2018-05-11T15:04:47.651Z,25.46
2018-05-11T15:07:16.260Z,25.41
2018-05-11T15:09:44.577Z,25.37
2018-05-11T15:12:12.964Z,25.51
2018-05-11T15:14:41.345Z,25.58
2018-05-11T15:17:09.676Z,25.41
2018-05-11T15:19:38.045Z,25.23
2018-05-11T15:22:06.424Z,25.02
2018-05-11T15:24:34.764Z,25.17
2018-05-11T15:27:03.123Z,24.99
2018-05-11T15:29:31.800Z,25.19
2018-05-11T15:32:00.138Z,25.33
2018-05-11T15:34:28.483Z,25.22
2018-05-11T15:36:57.620Z,25.46
2018-05-11T15:39:25.932Z,25.38
2018-05-11T15:41:54.270Z,25.39
2018-05-11T15:44:22.642Z,25.51
2018-05-11T15:46:50.969Z,25.54
2018-05-11T15:49:20.090Z,25.29
2018-05-11T15:51:48.959Z,25.53
2018-05-11T15:54:18.108Z,25.47
2018-05-11T15:56:46.448Z,25.49
2018-05-11T15:59:15.559Z,25.30
2018-05-11T16:01:43.907Z,24.98
2018-05-11T16:04:12.232Z,24.97
2018-05-11T16:06:40.575Z,25.08
2018-05-11T16:09:09.667Z,25.05
2018-05-11T16:11:38.770Z,25.22
2018-05-11T16:14:08.066Z,25.17
2018-05-11T16:16:37.171Z,25.13
2018-05-11T16:19:06.326Z,24.88
2018-05-11T16:21:34.733Z,25.03
2018-05-11T16:24:03.057Z,25.07
2018-05-11T16:26:31.397Z,24.99
2018-05-11T16:28:59.740Z,24.97
2018-05-11T16:31:28.042Z,24.94
2018-05-11T16:33:56.404Z,24.81
2018-05-11T16:36:25.145Z,24.92
2018-05-11T16:38:53.491Z,24.84
2018-05-11T16:41:21.823Z,25.02
2018-05-11T16:43:50.196Z,24.71
2018-05-11T16:46:18.580Z,24.41
2018-05-11T16:48:46.987Z,24.32
2018-05-11T16:51:15.383Z,24.26
2018-05-11T16:53:43.684Z,24.17
2018-05-11T16:56:12.770Z,24.08
2018-05-11T16:58:42.133Z,24.12
2018-05-11T17:01:10.469Z,24.12
2018-05-11T17:03:39.533Z,23.99
2018-05-11T17:06:07.883Z,23.93
2018-05-11T17:08:36.207Z,24.14
2018-05-11T17:11:04.549Z,23.99
2018-05-11T17:13:32.900Z,23.92
2018-05-11T17:16:01.259Z,23.78
2018-05-11T17:18:29.587Z,23.78
2018-05-11T17:20:58.196Z,23.64
2018-05-11T17:23:26.492Z,23.59
2018-05-11T17:25:55.621Z,23.79
2018-05-11T17:28:24.255Z,23.53
2018-05-11T17:30:52.649Z,23.23
2018-05-11T17:33:21.748Z,23.33
2018-05-11T17:35:50.920Z,23.43
2018-05-11T17:38:19.242Z,23.45
2018-05-11T17:40:47.575Z,23.36
2018-05-11T17:43:16.123Z,23.43
2018-05-11T17:45:44.442Z,23.47
2018-05-11T17:48:12.783Z,23.50
2018-05-11T17:50:41.184Z,23.44
2018-05-11T17:53:09.522Z,23.43
2018-05-11T17:55:37.860Z,23.47
2018-05-11T17:58:06.248Z,23.35
2018-05-11T18:00:34.573Z,23.36
2018-05-11T18:03:03.022Z,23.38
2018-05-11T18:05:31.715Z,23.38
2018-05-11T18:08:00.060Z,23.35
2018-05-11T18:10:28.408Z,23.32
2018-05-11T18:12:56.826Z,23.28
2018-05-11T18:15:25.151Z,23.27
2018-05-11T18:17:53.480Z,23.17
2018-05-11T18:20:21.845Z,23.08
2018-05-11T18:22:50.168Z,23.04
2018-05-11T18:25:18.511Z,22.90
2018-05-11T18:27:46.967Z,22.90
2018-05-11T18:30:15.347Z,22.90
2018-05-11T18:32:43.683Z,22.91
2018-05-11T18:35:12.060Z,22.84
2018-05-11T18:37:40.405Z,22.75
2018-05-11T18:40:08.946Z,22.80
2018-05-11T18:42:37.397Z,22.88
2018-05-11T18:45:06.505Z,22.87
2018-05-11T18:47:35.613Z,22.83
2018-05-11T18:50:04.092Z,22.63
2018-05-11T18:52:32.478Z,22.74
2018-05-11T18:55:00.844Z,22.65
2018-05-11T18:57:29.971Z,22.73
2018-05-11T18:59:58.289Z,22.55
2018-05-11T19:02:26.622Z,22.54
2018-05-11T19:04:54.979Z,22.53
2018-05-11T19:07:24.076Z,22.55
2018-05-11T19:09:52.524Z,22.45
2018-05-11T19:12:21.223Z,22.45
2018-05-11T19:14:50.322Z,22.55
2018-05-11T19:17:19.445Z,22.45
2018-05-11T19:19:47.799Z,22.43
2018-05-11T19:22:16.138Z,22.40
2018-05-11T19:24:44.451Z,22.39
2018-05-11T19:27:12.808Z,22.28
2018-05-11T19:29:41.150Z,22.22
2018-05-11T19:32:09.508Z,22.29
2018-05-11T19:34:38.734Z,22.11
2018-05-11T19:37:07.061Z,22.00
2018-05-11T19:39:35.429Z,22.00
2018-05-11T19:42:03.763Z,21.99
2018-05-11T19:44:32.149Z,21.90
2018-05-11T19:47:00.508Z,21.82
2018-05-11T19:49:28.851Z,21.82
2018-05-11T19:51:57.179Z,21.68
2018-05-11T19:54:25.509Z,21.60
2018-05-11T19:56:54.046Z,21.33
2018-05-11T19:59:22.388Z,21.36
2018-05-11T20:01:51.554Z,21.36
2018-05-11T20:04:19.938Z,21.19
2018-05-11T20:06:48.283Z,20.99
2018-05-11T20:09:16.621Z,21.00
2018-05-11T20:11:44.984Z,21.03
2018-05-11T20:14:14.156Z,20.98
2018-05-11T20:16:42.509Z,20.90
2018-05-11T20:19:11.249Z,20.98
2018-05-11T20:21:40.372Z,20.87
2018-05-11T20:24:09.521Z,20.95
2018-05-11T20:26:38.044Z,20.89
2018-05-11T20:29:06.424Z,20.92
2018-05-11T20:31:35.682Z,20.83
2018-05-11T20:34:04.067Z,20.74
2018-05-11T20:36:32.432Z,20.82
2018-05-11T20:39:00.795Z,20.84
2018-05-11T20:41:29.244Z,20.69
2018-05-11T20:43:58.385Z,20.87
2018-05-11T20:46:26.732Z,20.58
2018-05-11T20:48:55.201Z,20.69
2018-05-11T20:51:23.463Z,20.59
2018-05-11T20:53:51.790Z,20.64
2018-05-11T20:56:20.136Z,20.67
2018-05-11T20:58:49.239Z,20.69
2018-05-11T21:01:18.319Z,20.70
2018-05-11T21:03:47.137Z,20.71
2018-05-11T21:06:15.491Z,20.75
2018-05-11T21:08:44.647Z,20.59
2018-05-11T21:11:13.048Z,20.67
2018-05-11T21:13:41.425Z,20.59
2018-05-11T21:16:09.759Z,20.47
2018-05-11T21:18:38.146Z,20.18
2018-05-11T21:21:06.571Z,20.16
2018-05-11T21:23:34.907Z,20.08
2018-05-11T21:26:03.510Z,20.23
2018-05-11T21:28:31.834Z,20.02
2018-05-11T21:31:00.923Z,19.80
2018-05-11T21:33:29.387Z,20.04
2018-05-11T21:35:57.718Z,20.19
2018-05-11T21:38:26.037Z,20.09
2018-05-11T21:40:54.392Z,20.18
2018-05-11T21:43:22.761Z,20.25
2018-05-11T21:45:51.073Z,20.23
2018-05-11T21:48:19.492Z,20.04
2018-05-11T21:50:48.572Z,19.82
2018-05-11T21:53:16.908Z,19.96
2018-05-11T21:55:45.262Z,19.93
2018-05-11T21:58:13.575Z,19.82
2018-05-11T22:00:41.936Z,19.79
2018-05-11T22:03:10.301Z,19.78
2018-05-11T22:05:38.603Z,19.50
2018-05-11T22:08:06.962Z,19.41
2018-05-11T22:10:35.586Z,19.36
2018-05-11T22:13:03.962Z,19.40
2018-05-11T22:15:32.290Z,19.56
2018-05-11T22:18:01.412Z,19.81
2018-05-11T22:20:29.703Z,19.65
2018-05-11T22:22:58.003Z,19.54
2018-05-11T22:25:26.351Z,19.70
2018-05-11T22:27:54.690Z,19.53
2018-05-11T22:30:23.015Z,19.54
2018-05-11T22:32:51.833Z,19.56
2018-05-11T22:35:20.154Z,19.50
2018-05-11T22:37:48.472Z,19.34
2018-05-11T22:40:16.823Z,19.35
2018-05-11T22:42:45.153Z,19.32
2018-05-11T22:45:13.474Z,19.49
2018-05-11T22:47:41.836Z,19.62
2018-05-11T22:50:10.168Z,19.50
2018-05-11T22:52:39.246Z,19.56
2018-05-11T22:55:07.864Z,19.44
2018-05-11T22:57:36.191Z,19.38
2018-05-11T23:00:04.502Z,19.24
2018-05-11T23:02:32.847Z,19.36
2018-05-11T23:05:01.173Z,19.42
2018-05-11T23:07:29.493Z,19.61
2018-05-11T23:09:58.646Z,19.39
2018-05-11T23:12:26.955Z,19.31
2018-05-11T23:14:55.275Z,19.38
2018-05-11T23:17:23.656Z,19.49
2018-05-11T23:19:51.965Z,19.63
2018-05-11T23:22:20.279Z,19.92
2018-05-11T23:24:49.405Z,20.04
2018-05-11T23:27:17.755Z,19.96
2018-05-11T23:29:46.841Z,19.72
2018-05-11T23:32:15.968Z,19.64
2018-05-11T23:34:44.290Z,19.58
2018-05-11T23:37:12.628Z,19.39
2018-05-11T23:39:41.218Z,19.52
2018-05-11T23:42:10.347Z,19.19
2018-05-11T23:44:38.914Z,19.09
2018-05-11T23:47:07.282Z,19.19
2018-05-11T23:49:35.611Z,19.33
2018-05-11T23:52:03.943Z,19.27
2018-05-11T23:54:32.278Z,19.53
2018-05-11T23:57:01.389Z,19.65
2018-05-11T23:59:29.770Z,19.50
